sensor_id;sensor_type;location;lat;lon;timestamp;P1;durP1;ratioP1;P2;durP2;ratioP2
813;SDS011;389;48.710;9.392;2022-09-09T00:00:24;5.40;;;3.37;;
813;SDS011;389;48.710;9.392;2022-09-09T00:08:02;5.70;;;3.17;;
813;SDS011;389;48.710;9.392;2022-09-09T00:10:32;5.70;;;3.17;;
813;SDS011;389;48.710;9.392;2022-09-09T00:13:16;4.30;;;3.23;;
813;SDS011;389;48.710;9.392;2022-09-09T00:16:04;4.67;;;2.80;;
813;SDS011;389;48.710;9.392;2022-09-09T00:21:43;5.07;;;2.90;;
813;SDS011;389;48.710;9.392;2022-09-09T00:27:23;4.70;;;2.70;;
813;SDS011;389;48.710;9.392;2022-09-09T00:29:55;5.27;;;2.90;;
813;SDS011;389;48.710;9.392;2022-09-09T00:32:28;6.43;;;2.90;;
813;SDS011;389;48.710;9.392;2022-09-09T00:35:00;3.17;;;2.60;;
813;SDS011;389;48.710;9.392;2022-09-09T00:37:41;5.23;;;3.13;;
813;SDS011;389;48.710;9.392;2022-09-09T00:40:16;6.37;;;3.37;;
813;SDS011;389;48.710;9.392;2022-09-09T00:42:47;3.50;;;3.07;;
813;SDS011;389;48.710;9.392;2022-09-09T00:48:01;4.43;;;2.50;;
813;SDS011;389;48.710;9.392;2022-09-09T00:53:30;3.20;;;2.73;;
813;SDS011;389;48.710;9.392;2022-09-09T00:56:22;5.27;;;2.97;;
813;SDS011;389;48.710;9.392;2022-09-09T01:01:40;2.90;;;2.67;;
813;SDS011;389;48.710;9.392;2022-09-09T01:04:12;5.77;;;3.07;;
813;SDS011;389;48.710;9.392;2022-09-09T01:06:41;4.20;;;2.50;;
813;SDS011;389;48.710;9.392;2022-09-09T01:11:37;6.00;;;2.73;;
813;SDS011;389;48.710;9.392;2022-09-09T01:14:27;5.60;;;2.70;;
813;SDS011;389;48.710;9.392;2022-09-09T01:17:00;3.27;;;2.60;;
813;SDS011;389;48.710;9.392;2022-09-09T01:22:14;2.70;;;2.40;;
813;SDS011;389;48.710;9.392;2022-09-09T01:27:50;3.73;;;2.63;;
813;SDS011;389;48.710;9.392;2022-09-09T01:30:20;4.17;;;2.50;;
813;SDS011;389;48.710;9.392;2022-09-09T01:32:50;4.83;;;2.40;;
813;SDS011;389;48.710;9.392;2022-09-09T01:35:32;4.73;;;2.70;;
813;SDS011;389;48.710;9.392;2022-09-09T01:38:04;5.83;;;2.70;;
813;SDS011;389;48.710;9.392;2022-09-09T01:40:30;5.20;;;2.40;;
813;SDS011;389;48.710;9.392;2022-09-09T01:42:56;3.80;;;2.40;;
813;SDS011;389;48.710;9.392;2022-09-09T01:45:22;3.30;;;2.70;;
813;SDS011;389;48.710;9.392;2022-09-09T01:47:49;2.77;;;1.97;;
813;SDS011;389;48.710;9.392;2022-09-09T01:50:16;4.30;;;2.70;;
813;SDS011;389;48.710;9.392;2022-09-09T01:52:44;3.00;;;2.70;;
813;SDS011;389;48.710;9.392;2022-09-09T01:55:15;4.63;;;2.80;;
813;SDS011;389;48.710;9.392;2022-09-09T02:00:32;6.23;;;2.57;;
813;SDS011;389;48.710;9.392;2022-09-09T02:05:35;3.20;;;2.90;;
813;SDS011;389;48.710;9.392;2022-09-09T02:08:20;7.53;;;2.63;;
813;SDS011;389;48.710;9.392;2022-09-09T02:13:32;4.33;;;2.70;;
813;SDS011;389;48.710;9.392;2022-09-09T02:16:07;5.47;;;2.43;;
813;SDS011;389;48.710;9.392;2022-09-09T02:21:14;7.03;;;6.03;;
813;SDS011;389;48.710;9.392;2022-09-09T02:23:42;6.23;;;5.60;;
813;SDS011;389;48.710;9.392;2022-09-09T02:26:12;3.83;;;3.23;;
813;SDS011;389;48.710;9.392;2022-09-09T02:28:44;4.63;;;3.03;;
813;SDS011;389;48.710;9.392;2022-09-09T02:31:11;2.40;;;2.20;;
813;SDS011;389;48.710;9.392;2022-09-09T02:33:41;6.00;;;3.07;;
813;SDS011;389;48.710;9.392;2022-09-09T02:36:10;3.87;;;2.40;;
813;SDS011;389;48.710;9.392;2022-09-09T02:38:42;7.70;;;2.80;;
813;SDS011;389;48.710;9.392;2022-09-09T02:41:11;5.43;;;2.83;;
813;SDS011;389;48.710;9.392;2022-09-09T02:43:36;7.50;;;3.67;;
813;SDS011;389;48.710;9.392;2022-09-09T02:49:06;6.93;;;3.13;;
813;SDS011;389;48.710;9.392;2022-09-09T02:52:21;4.23;;;2.53;;
813;SDS011;389;48.710;9.392;2022-09-09T02:54:31;4.70;;;2.53;;
813;SDS011;389;48.710;9.392;2022-09-09T02:57:08;8.33;;;3.60;;
813;SDS011;389;48.710;9.392;2022-09-09T02:59:35;6.50;;;3.30;;
813;SDS011;389;48.710;9.392;2022-09-09T03:02:01;4.60;;;3.30;;
813;SDS011;389;48.710;9.392;2022-09-09T03:04:27;4.47;;;3.23;;
813;SDS011;389;48.710;9.392;2022-09-09T03:06:53;8.23;;;3.10;;
813;SDS011;389;48.710;9.392;2022-09-09T03:09:19;4.57;;;3.33;;
813;SDS011;389;48.710;9.392;2022-09-09T03:11:45;4.23;;;3.53;;
813;SDS011;389;48.710;9.392;2022-09-09T03:14:10;8.50;;;3.67;;
813;SDS011;389;48.710;9.392;2022-09-09T03:16:36;5.97;;;3.03;;
813;SDS011;389;48.710;9.392;2022-09-09T03:19:02;3.73;;;3.40;;
813;SDS011;389;48.710;9.392;2022-09-09T03:21:27;6.33;;;3.37;;
813;SDS011;389;48.710;9.392;2022-09-09T03:23:53;4.40;;;3.53;;
813;SDS011;389;48.710;9.392;2022-09-09T03:26:19;8.13;;;3.60;;
813;SDS011;389;48.710;9.392;2022-09-09T03:28:45;6.20;;;3.73;;
813;SDS011;389;48.710;9.392;2022-09-09T03:31:10;6.33;;;4.10;;
813;SDS011;389;48.710;9.392;2022-09-09T03:33:36;6.33;;;3.67;;
813;SDS011;389;48.710;9.392;2022-09-09T03:36:03;5.10;;;3.50;;
813;SDS011;389;48.710;9.392;2022-09-09T03:38:29;4.00;;;3.23;;
813;SDS011;389;48.710;9.392;2022-09-09T03:40:55;5.60;;;3.90;;
813;SDS011;389;48.710;9.392;2022-09-09T03:43:22;9.80;;;3.70;;
813;SDS011;389;48.710;9.392;2022-09-09T03:45:49;7.40;;;4.37;;
813;SDS011;389;48.710;9.392;2022-09-09T03:48:15;9.60;;;4.10;;
813;SDS011;389;48.710;9.392;2022-09-09T03:50:49;4.80;;;3.90;;
813;SDS011;389;48.710;9.392;2022-09-09T03:53:16;6.90;;;3.30;;
813;SDS011;389;48.710;9.392;2022-09-09T03:55:48;7.67;;;3.77;;
813;SDS011;389;48.710;9.392;2022-09-09T03:58:16;6.47;;;3.40;;
813;SDS011;389;48.710;9.392;2022-09-09T04:00:44;5.80;;;3.80;;
813;SDS011;389;48.710;9.392;2022-09-09T04:03:22;6.50;;;3.70;;
813;SDS011;389;48.710;9.392;2022-09-09T04:05:49;4.40;;;3.87;;
813;SDS011;389;48.710;9.392;2022-09-09T04:08:21;6.20;;;3.60;;
813;SDS011;389;48.710;9.392;2022-09-09T04:10:50;9.13;;;3.57;;
813;SDS011;389;48.710;9.392;2022-09-09T04:13:16;4.27;;;3.57;;
813;SDS011;389;48.710;9.392;2022-09-09T04:15:43;4.43;;;4.00;;
813;SDS011;389;48.710;9.392;2022-09-09T04:18:14;8.47;;;3.80;;
813;SDS011;389;48.710;9.392;2022-09-09T04:20:40;9.70;;;4.00;;
813;SDS011;389;48.710;9.392;2022-09-09T04:23:08;3.83;;;3.43;;
813;SDS011;389;48.710;9.392;2022-09-09T04:25:34;5.93;;;3.83;;
813;SDS011;389;48.710;9.392;2022-09-09T04:27:59;6.00;;;3.80;;
813;SDS011;389;48.710;9.392;2022-09-09T04:30:25;5.33;;;3.70;;
813;SDS011;389;48.710;9.392;2022-09-09T04:32:52;6.57;;;3.77;;
813;SDS011;389;48.710;9.392;2022-09-09T04:35:17;4.23;;;3.60;;
813;SDS011;389;48.710;9.392;2022-09-09T04:37:44;5.97;;;3.73;;
813;SDS011;389;48.710;9.392;2022-09-09T04:40:10;3.97;;;3.60;;
813;SDS011;389;48.710;9.392;2022-09-09T04:42:36;4.60;;;3.40;;
813;SDS011;389;48.710;9.392;2022-09-09T04:45:02;6.30;;;3.40;;
813;SDS011;389;48.710;9.392;2022-09-09T04:47:28;5.67;;;3.30;;
813;SDS011;389;48.710;9.392;2022-09-09T04:49:54;7.67;;;3.50;;
813;SDS011;389;48.710;9.392;2022-09-09T04:52:20;5.37;;;4.47;;
813;SDS011;389;48.710;9.392;2022-09-09T04:54:45;6.80;;;3.50;;
813;SDS011;389;48.710;9.392;2022-09-09T04:57:11;5.07;;;3.60;;
813;SDS011;389;48.710;9.392;2022-09-09T04:59:37;4.00;;;3.10;;
813;SDS011;389;48.710;9.392;2022-09-09T05:02:04;6.47;;;3.20;;
813;SDS011;389;48.710;9.392;2022-09-09T05:04:30;3.13;;;2.63;;
813;SDS011;389;48.710;9.392;2022-09-09T05:06:55;5.53;;;3.53;;
813;SDS011;389;48.710;9.392;2022-09-09T05:09:21;6.13;;;2.90;;
813;SDS011;389;48.710;9.392;2022-09-09T05:11:46;5.33;;;3.17;;
813;SDS011;389;48.710;9.392;2022-09-09T05:14:12;8.43;;;2.80;;
813;SDS011;389;48.710;9.392;2022-09-09T05:16:39;5.37;;;2.83;;
813;SDS011;389;48.710;9.392;2022-09-09T05:19:05;6.63;;;3.47;;
813;SDS011;389;48.710;9.392;2022-09-09T05:21:33;8.13;;;2.93;;
813;SDS011;389;48.710;9.392;2022-09-09T05:23:59;7.20;;;3.23;;
813;SDS011;389;48.710;9.392;2022-09-09T05:26:25;4.20;;;3.17;;
813;SDS011;389;48.710;9.392;2022-09-09T05:28:51;4.83;;;3.90;;
813;SDS011;389;48.710;9.392;2022-09-09T05:31:17;3.37;;;2.93;;
813;SDS011;389;48.710;9.392;2022-09-09T05:33:45;5.03;;;3.23;;
813;SDS011;389;48.710;9.392;2022-09-09T05:36:12;6.30;;;3.77;;
813;SDS011;389;48.710;9.392;2022-09-09T05:38:40;3.50;;;3.20;;
813;SDS011;389;48.710;9.392;2022-09-09T05:41:06;7.43;;;3.40;;
813;SDS011;389;48.710;9.392;2022-09-09T05:43:32;4.00;;;3.23;;
813;SDS011;389;48.710;9.392;2022-09-09T05:46:07;4.37;;;2.87;;
813;SDS011;389;48.710;9.392;2022-09-09T05:48:36;2.50;;;2.30;;
813;SDS011;389;48.710;9.392;2022-09-09T05:51:03;3.57;;;2.60;;
813;SDS011;389;48.710;9.392;2022-09-09T05:53:31;3.70;;;2.67;;
813;SDS011;389;48.710;9.392;2022-09-09T05:56:44;4.57;;;2.93;;
813;SDS011;389;48.710;9.392;2022-09-09T05:58:46;3.33;;;2.70;;
813;SDS011;389;48.710;9.392;2022-09-09T06:01:13;3.80;;;2.53;;
813;SDS011;389;48.710;9.392;2022-09-09T06:03:44;4.43;;;2.40;;
813;SDS011;389;48.710;9.392;2022-09-09T06:06:12;4.00;;;2.30;;
813;SDS011;389;48.710;9.392;2022-09-09T06:08:40;3.87;;;2.23;;
813;SDS011;389;48.710;9.392;2022-09-09T06:11:09;5.87;;;2.47;;
813;SDS011;389;48.710;9.392;2022-09-09T06:13:38;4.13;;;2.13;;
813;SDS011;389;48.710;9.392;2022-09-09T06:16:08;2.87;;;1.80;;
813;SDS011;389;48.710;9.392;2022-09-09T06:18:38;3.60;;;2.03;;
813;SDS011;389;48.710;9.392;2022-09-09T06:21:05;3.40;;;1.90;;
813;SDS011;389;48.710;9.392;2022-09-09T06:23:40;5.73;;;2.30;;
813;SDS011;389;48.710;9.392;2022-09-09T06:28:33;3.57;;;2.70;;
813;SDS011;389;48.710;9.392;2022-09-09T06:30:59;8.63;;;2.47;;
813;SDS011;389;48.710;9.392;2022-09-09T06:33:26;3.17;;;2.40;;
813;SDS011;389;48.710;9.392;2022-09-09T06:35:55;3.00;;;2.07;;
813;SDS011;389;48.710;9.392;2022-09-09T06:38:22;2.20;;;2.00;;
813;SDS011;389;48.710;9.392;2022-09-09T06:40:54;3.83;;;2.40;;
813;SDS011;389;48.710;9.392;2022-09-09T06:43:22;7.13;;;2.40;;
813;SDS011;389;48.710;9.392;2022-09-09T06:45:58;8.00;;;3.00;;
813;SDS011;389;48.710;9.392;2022-09-09T06:48:26;2.53;;;2.20;;
813;SDS011;389;48.710;9.392;2022-09-09T06:53:56;2.83;;;2.57;;
813;SDS011;389;48.710;9.392;2022-09-09T06:58:56;5.80;;;2.40;;
813;SDS011;389;48.710;9.392;2022-09-09T07:01:26;4.37;;;2.67;;
813;SDS011;389;48.710;9.392;2022-09-09T07:03:54;2.43;;;2.20;;
813;SDS011;389;48.710;9.392;2022-09-09T07:06:22;7.47;;;3.40;;
813;SDS011;389;48.710;9.392;2022-09-09T07:09:08;10.87;;;6.60;;
813;SDS011;389;48.710;9.392;2022-09-09T07:11:42;9.30;;;7.10;;
813;SDS011;389;48.710;9.392;2022-09-09T07:14:12;11.73;;;7.00;;
813;SDS011;389;48.710;9.392;2022-09-09T07:16:39;13.10;;;8.00;;
813;SDS011;389;48.710;9.392;2022-09-09T07:19:06;7.43;;;3.60;;
813;SDS011;389;48.710;9.392;2022-09-09T07:21:32;8.50;;;3.90;;
813;SDS011;389;48.710;9.392;2022-09-09T07:23:58;8.33;;;4.53;;
813;SDS011;389;48.710;9.392;2022-09-09T07:26:28;4.83;;;3.13;;
813;SDS011;389;48.710;9.392;2022-09-09T07:28:55;3.10;;;2.20;;
813;SDS011;389;48.710;9.392;2022-09-09T07:31:26;2.63;;;2.00;;
813;SDS011;389;48.710;9.392;2022-09-09T07:33:55;3.50;;;2.47;;
813;SDS011;389;48.710;9.392;2022-09-09T07:36:26;3.13;;;2.53;;
813;SDS011;389;48.710;9.392;2022-09-09T07:38:54;5.13;;;2.40;;
813;SDS011;389;48.710;9.392;2022-09-09T07:41:23;4.73;;;2.70;;
813;SDS011;389;48.710;9.392;2022-09-09T07:43:50;2.90;;;2.00;;
813;SDS011;389;48.710;9.392;2022-09-09T07:46:19;2.83;;;2.20;;
813;SDS011;389;48.710;9.392;2022-09-09T07:48:47;3.10;;;2.33;;
813;SDS011;389;48.710;9.392;2022-09-09T07:51:24;6.00;;;2.60;;
813;SDS011;389;48.710;9.392;2022-09-09T07:53:54;3.40;;;2.13;;
813;SDS011;389;48.710;9.392;2022-09-09T07:56:23;2.80;;;2.00;;
813;SDS011;389;48.710;9.392;2022-09-09T07:58:52;4.63;;;2.77;;
813;SDS011;389;48.710;9.392;2022-09-09T08:01:20;2.37;;;2.10;;
813;SDS011;389;48.710;9.392;2022-09-09T08:03:52;3.33;;;1.80;;
813;SDS011;389;48.710;9.392;2022-09-09T08:06:20;2.20;;;1.67;;
813;SDS011;389;48.710;9.392;2022-09-09T08:08:49;3.80;;;2.00;;
813;SDS011;389;48.710;9.392;2022-09-09T08:11:15;3.20;;;2.10;;
813;SDS011;389;48.710;9.392;2022-09-09T08:13:41;6.33;;;2.10;;
813;SDS011;389;48.710;9.392;2022-09-09T08:16:09;3.93;;;2.00;;
813;SDS011;389;48.710;9.392;2022-09-09T08:18:35;3.00;;;2.10;;
813;SDS011;389;48.710;9.392;2022-09-09T08:21:05;4.40;;;2.10;;
813;SDS011;389;48.710;9.392;2022-09-09T08:23:41;4.43;;;2.20;;
813;SDS011;389;48.710;9.392;2022-09-09T08:26:18;4.27;;;1.93;;
813;SDS011;389;48.710;9.392;2022-09-09T08:28:49;2.67;;;1.87;;
813;SDS011;389;48.710;9.392;2022-09-09T08:31:17;5.37;;;1.90;;
813;SDS011;389;48.710;9.392;2022-09-09T08:33:44;1.70;;;1.60;;
813;SDS011;389;48.710;9.392;2022-09-09T08:36:17;2.90;;;1.90;;
813;SDS011;389;48.710;9.392;2022-09-09T08:38:47;4.87;;;2.10;;
813;SDS011;389;48.710;9.392;2022-09-09T08:44:37;1.50;;;1.40;;
813;SDS011;389;48.710;9.392;2022-09-09T08:52:50;3.63;;;1.57;;
813;SDS011;389;48.710;9.392;2022-09-09T08:55:37;2.80;;;1.90;;
813;SDS011;389;48.710;9.392;2022-09-09T08:58:09;2.10;;;1.83;;
813;SDS011;389;48.710;9.392;2022-09-09T09:03:22;3.77;;;2.63;;
813;SDS011;389;48.710;9.392;2022-09-09T09:09:01;3.30;;;2.30;;
813;SDS011;389;48.710;9.392;2022-09-09T09:11:37;3.43;;;2.23;;
813;SDS011;389;48.710;9.392;2022-09-09T09:17:03;2.23;;;1.63;;
813;SDS011;389;48.710;9.392;2022-09-09T09:19:33;4.50;;;2.60;;
813;SDS011;389;48.710;9.392;2022-09-09T09:27:42;4.00;;;3.13;;
813;SDS011;389;48.710;9.392;2022-09-09T09:30:19;4.40;;;2.70;;
813;SDS011;389;48.710;9.392;2022-09-09T09:32:54;2.70;;;2.30;;
813;SDS011;389;48.710;9.392;2022-09-09T09:35:23;2.43;;;2.00;;
813;SDS011;389;48.710;9.392;2022-09-09T09:37:49;1.70;;;1.60;;
813;SDS011;389;48.710;9.392;2022-09-09T09:40:17;2.57;;;1.50;;
813;SDS011;389;48.710;9.392;2022-09-09T09:42:53;2.27;;;2.00;;
813;SDS011;389;48.710;9.392;2022-09-09T09:48:11;2.90;;;1.40;;
813;SDS011;389;48.710;9.392;2022-09-09T09:50:51;2.50;;;1.20;;
813;SDS011;389;48.710;9.392;2022-09-09T09:53:27;2.40;;;1.23;;
813;SDS011;389;48.710;9.392;2022-09-09T09:56:02;1.80;;;1.10;;
813;SDS011;389;48.710;9.392;2022-09-09T10:01:22;1.80;;;1.20;;
813;SDS011;389;48.710;9.392;2022-09-09T10:03:52;2.93;;;1.20;;
813;SDS011;389;48.710;9.392;2022-09-09T10:06:32;1.53;;;1.10;;
813;SDS011;389;48.710;9.392;2022-09-09T10:09:00;1.00;;;0.80;;
813;SDS011;389;48.710;9.392;2022-09-09T10:11:30;1.83;;;0.80;;
813;SDS011;389;48.710;9.392;2022-09-09T10:14:20;1.10;;;0.70;;
813;SDS011;389;48.710;9.392;2022-09-09T10:19:35;2.53;;;1.00;;
813;SDS011;389;48.710;9.392;2022-09-09T10:22:09;2.10;;;0.87;;
813;SDS011;389;48.710;9.392;2022-09-09T10:36:20;2.73;;;1.10;;
813;SDS011;389;48.710;9.392;2022-09-09T10:38:59;4.00;;;1.33;;
813;SDS011;389;48.710;9.392;2022-09-09T10:41:51;1.43;;;1.10;;
813;SDS011;389;48.710;9.392;2022-09-09T10:47:20;2.60;;;1.00;;
813;SDS011;389;48.710;9.392;2022-09-09T10:55:41;1.33;;;0.93;;
813;SDS011;389;48.710;9.392;2022-09-09T10:58:10;2.87;;;1.20;;
813;SDS011;389;48.710;9.392;2022-09-09T11:00:47;1.67;;;1.03;;
813;SDS011;389;48.710;9.392;2022-09-09T11:03:26;2.70;;;1.10;;
813;SDS011;389;48.710;9.392;2022-09-09T11:05:59;1.87;;;1.10;;
813;SDS011;389;48.710;9.392;2022-09-09T11:08:38;4.47;;;1.23;;
813;SDS011;389;48.710;9.392;2022-09-09T11:13:34;0.80;;;0.80;;
813;SDS011;389;48.710;9.392;2022-09-09T11:19:02;2.27;;;1.00;;
813;SDS011;389;48.710;9.392;2022-09-09T11:21:42;2.70;;;1.13;;
813;SDS011;389;48.710;9.392;2022-09-09T11:24:16;1.53;;;1.07;;
813;SDS011;389;48.710;9.392;2022-09-09T11:35:46;1.80;;;1.20;;
813;SDS011;389;48.710;9.392;2022-09-09T11:38:26;12.13;;;2.23;;
813;SDS011;389;48.710;9.392;2022-09-09T11:40:56;4.50;;;1.80;;
813;SDS011;389;48.710;9.392;2022-09-09T11:43:38;4.97;;;1.50;;
813;SDS011;389;48.710;9.392;2022-09-09T11:46:09;3.13;;;1.40;;
813;SDS011;389;48.710;9.392;2022-09-09T11:48:39;14.53;;;1.50;;
813;SDS011;389;48.710;9.392;2022-09-09T11:56:30;2.87;;;1.50;;
813;SDS011;389;48.710;9.392;2022-09-09T11:59:04;3.20;;;1.60;;
813;SDS011;389;48.710;9.392;2022-09-09T12:01:45;2.70;;;1.30;;
813;SDS011;389;48.710;9.392;2022-09-09T12:12:52;1.37;;;1.10;;
813;SDS011;389;48.710;9.392;2022-09-09T12:15:21;2.67;;;1.20;;
813;SDS011;389;48.710;9.392;2022-09-09T12:17:57;1.70;;;1.20;;
813;SDS011;389;48.710;9.392;2022-09-09T12:24:11;2.53;;;0.70;;
813;SDS011;389;48.710;9.392;2022-09-09T12:27:07;2.73;;;0.60;;
813;SDS011;389;48.710;9.392;2022-09-09T12:32:29;1.27;;;0.53;;
813;SDS011;389;48.710;9.392;2022-09-09T12:35:03;0.50;;;0.50;;
813;SDS011;389;48.710;9.392;2022-09-09T12:38:20;1.07;;;0.50;;
813;SDS011;389;48.710;9.392;2022-09-09T12:41:24;1.10;;;0.50;;
813;SDS011;389;48.710;9.392;2022-09-09T12:44:33;1.33;;;0.70;;
813;SDS011;389;48.710;9.392;2022-09-09T12:47:01;0.80;;;0.60;;
813;SDS011;389;48.710;9.392;2022-09-09T12:49:40;1.83;;;0.63;;
813;SDS011;389;48.710;9.392;2022-09-09T12:55:03;0.70;;;0.53;;
813;SDS011;389;48.710;9.392;2022-09-09T12:57:34;0.80;;;0.50;;
813;SDS011;389;48.710;9.392;2022-09-09T13:00:23;0.93;;;0.70;;
813;SDS011;389;48.710;9.392;2022-09-09T13:02:56;1.33;;;0.83;;
813;SDS011;389;48.710;9.392;2022-09-09T13:29:20;2.10;;;0.70;;
813;SDS011;389;48.710;9.392;2022-09-09T13:31:47;1.47;;;0.80;;
813;SDS011;389;48.710;9.392;2022-09-09T13:34:14;1.67;;;0.70;;
813;SDS011;389;48.710;9.392;2022-09-09T13:37:02;3.40;;;0.87;;
813;SDS011;389;48.710;9.392;2022-09-09T13:39:32;0.83;;;0.70;;
813;SDS011;389;48.710;9.392;2022-09-09T13:42:00;0.83;;;0.67;;
813;SDS011;389;48.710;9.392;2022-09-09T13:44:36;1.37;;;0.67;;
813;SDS011;389;48.710;9.392;2022-09-09T13:47:16;1.33;;;0.63;;
813;SDS011;389;48.710;9.392;2022-09-09T13:49:47;2.30;;;0.90;;
813;SDS011;389;48.710;9.392;2022-09-09T13:52:14;1.67;;;0.90;;
813;SDS011;389;48.710;9.392;2022-09-09T13:54:42;1.70;;;0.60;;
813;SDS011;389;48.710;9.392;2022-09-09T13:57:18;0.83;;;0.60;;
813;SDS011;389;48.710;9.392;2022-09-09T13:59:50;1.17;;;0.60;;
813;SDS011;389;48.710;9.392;2022-09-09T14:02:26;0.70;;;0.60;;
813;SDS011;389;48.710;9.392;2022-09-09T14:04:51;2.30;;;0.87;;
813;SDS011;389;48.710;9.392;2022-09-09T14:07:26;1.30;;;0.70;;
813;SDS011;389;48.710;9.392;2022-09-09T14:09:52;1.43;;;0.80;;
813;SDS011;389;48.710;9.392;2022-09-09T14:15:04;3.27;;;1.10;;
813;SDS011;389;48.710;9.392;2022-09-09T14:17:31;1.00;;;0.60;;
813;SDS011;389;48.710;9.392;2022-09-09T14:20:04;1.53;;;0.90;;
813;SDS011;389;48.710;9.392;2022-09-09T14:22:35;2.50;;;0.70;;
813;SDS011;389;48.710;9.392;2022-09-09T14:25:14;2.97;;;0.87;;
813;SDS011;389;48.710;9.392;2022-09-09T14:27:43;1.07;;;0.70;;
813;SDS011;389;48.710;9.392;2022-09-09T14:30:24;1.13;;;0.63;;
813;SDS011;389;48.710;9.392;2022-09-09T14:36:13;1.50;;;0.70;;
813;SDS011;389;48.710;9.392;2022-09-09T14:38:40;1.43;;;0.70;;
813;SDS011;389;48.710;9.392;2022-09-09T14:41:06;0.60;;;0.60;;
813;SDS011;389;48.710;9.392;2022-09-09T14:43:39;1.23;;;0.60;;
813;SDS011;389;48.710;9.392;2022-09-09T14:46:06;1.00;;;0.63;;
813;SDS011;389;48.710;9.392;2022-09-09T14:48:32;0.93;;;0.70;;
813;SDS011;389;48.710;9.392;2022-09-09T14:51:08;0.90;;;0.80;;
813;SDS011;389;48.710;9.392;2022-09-09T14:53:35;1.37;;;0.73;;
813;SDS011;389;48.710;9.392;2022-09-09T14:56:09;2.00;;;0.50;;
813;SDS011;389;48.710;9.392;2022-09-09T14:58:36;3.63;;;0.60;;
813;SDS011;389;48.710;9.392;2022-09-09T15:01:13;1.13;;;0.70;;
813;SDS011;389;48.710;9.392;2022-09-09T15:03:41;0.80;;;0.70;;
813;SDS011;389;48.710;9.392;2022-09-09T15:06:11;1.57;;;0.70;;
813;SDS011;389;48.710;9.392;2022-09-09T15:08:40;2.10;;;0.67;;
813;SDS011;389;48.710;9.392;2022-09-09T15:11:06;0.77;;;0.57;;
813;SDS011;389;48.710;9.392;2022-09-09T15:13:33;2.10;;;1.00;;
813;SDS011;389;48.710;9.392;2022-09-09T15:16:05;1.43;;;0.60;;
813;SDS011;389;48.710;9.392;2022-09-09T15:18:41;0.53;;;0.50;;
813;SDS011;389;48.710;9.392;2022-09-09T15:21:17;3.07;;;0.60;;
813;SDS011;389;48.710;9.392;2022-09-09T15:23:45;2.27;;;0.60;;
813;SDS011;389;48.710;9.392;2022-09-09T15:26:11;1.20;;;0.67;;
813;SDS011;389;48.710;9.392;2022-09-09T15:28:39;2.20;;;1.30;;
813;SDS011;389;48.710;9.392;2022-09-09T15:31:15;1.30;;;1.10;;
813;SDS011;389;48.710;9.392;2022-09-09T15:33:46;3.10;;;0.80;;
813;SDS011;389;48.710;9.392;2022-09-09T15:36:17;4.10;;;0.70;;
813;SDS011;389;48.710;9.392;2022-09-09T15:38:47;1.33;;;0.90;;
813;SDS011;389;48.710;9.392;2022-09-09T15:41:13;1.33;;;1.00;;
813;SDS011;389;48.710;9.392;2022-09-09T15:43:43;1.47;;;1.10;;
813;SDS011;389;48.710;9.392;2022-09-09T15:48:43;1.57;;;0.60;;
813;SDS011;389;48.710;9.392;2022-09-09T15:51:09;1.17;;;0.70;;
813;SDS011;389;48.710;9.392;2022-09-09T15:53:36;2.17;;;1.00;;
813;SDS011;389;48.710;9.392;2022-09-09T15:56:04;2.47;;;0.90;;
813;SDS011;389;48.710;9.392;2022-09-09T15:58:31;1.00;;;0.70;;
813;SDS011;389;48.710;9.392;2022-09-09T16:01:07;2.53;;;0.80;;
813;SDS011;389;48.710;9.392;2022-09-09T16:03:34;0.70;;;0.60;;
813;SDS011;389;48.710;9.392;2022-09-09T16:06:07;3.03;;;0.60;;
813;SDS011;389;48.710;9.392;2022-09-09T16:08:35;3.13;;;1.07;;
813;SDS011;389;48.710;9.392;2022-09-09T16:11:04;1.70;;;0.60;;
813;SDS011;389;48.710;9.392;2022-09-09T16:13:40;1.33;;;0.73;;
813;SDS011;389;48.710;9.392;2022-09-09T16:16:10;1.73;;;0.73;;
813;SDS011;389;48.710;9.392;2022-09-09T16:18:41;1.80;;;0.67;;
813;SDS011;389;48.710;9.392;2022-09-09T16:21:13;1.43;;;0.60;;
813;SDS011;389;48.710;9.392;2022-09-09T16:23:43;3.70;;;0.90;;
813;SDS011;389;48.710;9.392;2022-09-09T16:26:11;0.83;;;0.83;;
813;SDS011;389;48.710;9.392;2022-09-09T16:28:39;2.20;;;0.80;;
813;SDS011;389;48.710;9.392;2022-09-09T16:34:01;2.50;;;0.70;;
813;SDS011;389;48.710;9.392;2022-09-09T16:36:29;0.77;;;0.70;;
813;SDS011;389;48.710;9.392;2022-09-09T16:38:57;1.63;;;0.60;;
813;SDS011;389;48.710;9.392;2022-09-09T16:41:25;1.60;;;1.07;;
813;SDS011;389;48.710;9.392;2022-09-09T16:43:55;3.90;;;0.73;;
813;SDS011;389;48.710;9.392;2022-09-09T16:46:25;0.87;;;0.67;;
813;SDS011;389;48.710;9.392;2022-09-09T16:48:53;3.20;;;0.83;;
813;SDS011;389;48.710;9.392;2022-09-09T16:51:24;3.10;;;1.00;;
813;SDS011;389;48.710;9.392;2022-09-09T16:53:52;1.80;;;0.97;;
813;SDS011;389;48.710;9.392;2022-09-09T16:56:22;5.23;;;0.80;;
813;SDS011;389;48.710;9.392;2022-09-09T16:58:52;1.33;;;0.90;;
813;SDS011;389;48.710;9.392;2022-09-09T17:01:23;2.30;;;1.17;;
813;SDS011;389;48.710;9.392;2022-09-09T17:03:57;1.00;;;0.80;;
813;SDS011;389;48.710;9.392;2022-09-09T17:06:24;1.03;;;0.70;;
813;SDS011;389;48.710;9.392;2022-09-09T17:08:54;3.10;;;1.20;;
813;SDS011;389;48.710;9.392;2022-09-09T17:11:21;2.50;;;1.20;;
813;SDS011;389;48.710;9.392;2022-09-09T17:13:48;1.37;;;0.77;;
813;SDS011;389;48.710;9.392;2022-09-09T17:16:16;1.87;;;0.70;;
813;SDS011;389;48.710;9.392;2022-09-09T17:18:43;1.93;;;0.97;;
813;SDS011;389;48.710;9.392;2022-09-09T17:21:15;1.90;;;1.00;;
813;SDS011;389;48.710;9.392;2022-09-09T17:23:43;1.77;;;0.80;;
813;SDS011;389;48.710;9.392;2022-09-09T17:26:11;1.43;;;0.70;;
813;SDS011;389;48.710;9.392;2022-09-09T17:28:39;1.93;;;0.80;;
813;SDS011;389;48.710;9.392;2022-09-09T17:31:07;0.83;;;0.83;;
813;SDS011;389;48.710;9.392;2022-09-09T17:33:35;1.23;;;0.63;;
813;SDS011;389;48.710;9.392;2022-09-09T17:36:13;1.00;;;0.60;;
813;SDS011;389;48.710;9.392;2022-09-09T17:38:40;2.20;;;0.60;;
813;SDS011;389;48.710;9.392;2022-09-09T17:41:29;1.17;;;0.80;;
813;SDS011;389;48.710;9.392;2022-09-09T17:43:56;0.87;;;0.70;;
813;SDS011;389;48.710;9.392;2022-09-09T17:46:26;2.30;;;0.60;;
813;SDS011;389;48.710;9.392;2022-09-09T17:48:58;0.90;;;0.50;;
813;SDS011;389;48.710;9.392;2022-09-09T17:51:25;0.90;;;0.50;;
813;SDS011;389;48.710;9.392;2022-09-09T17:53:55;5.03;;;0.80;;
813;SDS011;389;48.710;9.392;2022-09-09T17:56:27;0.90;;;0.67;;
813;SDS011;389;48.710;9.392;2022-09-09T17:58:55;1.83;;;0.60;;
813;SDS011;389;48.710;9.392;2022-09-09T18:01:25;1.30;;;0.67;;
813;SDS011;389;48.710;9.392;2022-09-09T18:03:56;1.03;;;0.70;;
813;SDS011;389;48.710;9.392;2022-09-09T18:06:25;0.87;;;0.70;;
813;SDS011;389;48.710;9.392;2022-09-09T18:08:54;1.73;;;0.60;;
813;SDS011;389;48.710;9.392;2022-09-09T18:11:22;1.57;;;0.70;;
813;SDS011;389;48.710;9.392;2022-09-09T18:13:54;1.07;;;0.57;;
813;SDS011;389;48.710;9.392;2022-09-09T18:16:23;1.37;;;0.57;;
813;SDS011;389;48.710;9.392;2022-09-09T18:18:54;2.20;;;0.80;;
813;SDS011;389;48.710;9.392;2022-09-09T18:21:22;1.20;;;0.70;;
813;SDS011;389;48.710;9.392;2022-09-09T18:23:49;2.00;;;0.90;;
813;SDS011;389;48.710;9.392;2022-09-09T18:26:20;1.90;;;0.93;;
813;SDS011;389;48.710;9.392;2022-09-09T18:28:49;1.37;;;0.83;;
813;SDS011;389;48.710;9.392;2022-09-09T18:31:17;2.93;;;0.70;;
813;SDS011;389;48.710;9.392;2022-09-09T18:33:44;2.77;;;0.83;;
813;SDS011;389;48.710;9.392;2022-09-09T18:36:17;2.90;;;0.90;;
813;SDS011;389;48.710;9.392;2022-09-09T18:38:45;1.20;;;1.00;;
813;SDS011;389;48.710;9.392;2022-09-09T18:41:15;2.50;;;2.03;;
813;SDS011;389;48.710;9.392;2022-09-09T18:43:42;0.80;;;0.80;;
813;SDS011;389;48.710;9.392;2022-09-09T18:46:09;3.50;;;0.80;;
813;SDS011;389;48.710;9.392;2022-09-09T18:48:36;2.40;;;0.80;;
813;SDS011;389;48.710;9.392;2022-09-09T18:51:06;2.70;;;0.70;;
813;SDS011;389;48.710;9.392;2022-09-09T18:53:34;1.70;;;1.10;;
813;SDS011;389;48.710;9.392;2022-09-09T18:56:01;3.30;;;1.23;;
813;SDS011;389;48.710;9.392;2022-09-09T18:58:29;1.27;;;0.90;;
813;SDS011;389;48.710;9.392;2022-09-09T19:00:56;1.00;;;0.83;;